Delabole, United Kingdom
Current Conditions -  °F | °C
As of 2:50 PM on Saturday 25 Oct 2014 (Local Time) from EGHQ Reporting Station
Broken Clouds Broken Clouds  
Wind Chill: 55°   Ceiling: 4000
Heat Index: 55°   Visibility: 6mi
Dew Point: 48°   Wind: 16mph
Humidity: 77%   Direction: 240°WSW
Pressure: 30.09"   Gusts: NA
Location:  50.62°N, 4.73°W
Report Text: EGHQ 251350Z 24014KT 9999 BKN040 13/09 Q1019
Loading
Personal Weather Stations






























Interactive Weather Map New forecast layout! Learn more

10-Day Weather Forecast

Advertisements
Track Severe Weather on mobile